sensor_id;sensor_type;location;lat;lon;timestamp;pressure;altitude;pressure_sealevel;temperature;humidity
28027;BME280;15344;52.342;-1.290;2023-03-19T00:01:47;99664.98;;;10.97;100.00
28027;BME280;15344;52.342;-1.290;2023-03-19T00:04:12;99663.22;;;10.34;100.00
28027;BME280;15344;52.342;-1.290;2023-03-19T00:06:37;99657.96;;;11.85;100.00
28027;BME280;15344;52.342;-1.290;2023-03-19T00:09:03;99657.29;;;10.28;100.00
28027;BME280;15344;52.342;-1.290;2023-03-19T00:11:28;99666.21;;;9.84;100.00
28027;BME280;15344;52.342;-1.290;2023-03-19T00:13:53;99660.97;;;11.09;100.00
28027;BME280;15344;52.342;-1.290;2023-03-19T00:16:19;99663.52;;;11.02;100.00
28027;BME280;15344;52.342;-1.290;2023-03-19T00:18:44;99668.62;;;11.91;100.00
28027;BME280;15344;52.342;-1.290;2023-03-19T00:21:09;99676.00;;;11.11;100.00
28027;BME280;15344;52.342;-1.290;2023-03-19T00:23:35;99684.73;;;10.31;100.00
28027;BME280;15344;52.342;-1.290;2023-03-19T00:26:00;99686.98;;;11.03;100.00
28027;BME280;15344;52.342;-1.290;2023-03-19T00:28:25;99684.92;;;11.71;100.00
28027;BME280;15344;52.342;-1.290;2023-03-19T00:30:51;99681.84;;;11.53;100.00
28027;BME280;15344;52.342;-1.290;2023-03-19T00:33:16;99681.49;;;11.45;100.00
28027;BME280;15344;52.342;-1.290;2023-03-19T00:35:42;99677.85;;;10.89;100.00
28027;BME280;15344;52.342;-1.290;2023-03-19T00:38:07;99665.25;;;10.48;100.00
28027;BME280;15344;52.342;-1.290;2023-03-19T00:40:33;99673.92;;;10.96;100.00
28027;BME280;15344;52.342;-1.290;2023-03-19T00:42:58;99679.58;;;10.76;100.00
28027;BME280;15344;52.342;-1.290;2023-03-19T00:45:23;99689.75;;;10.74;100.00
28027;BME280;15344;52.342;-1.290;2023-03-19T00:47:49;99684.10;;;10.96;100.00
28027;BME280;15344;52.342;-1.290;2023-03-19T00:50:14;99679.29;;;11.35;100.00
28027;BME280;15344;52.342;-1.290;2023-03-19T00:52:39;99677.60;;;11.84;98.64
28027;BME280;15344;52.342;-1.290;2023-03-19T00:55:05;99674.43;;;11.10;100.00
28027;BME280;15344;52.342;-1.290;2023-03-19T00:57:30;99681.69;;;11.31;100.00
28027;BME280;15344;52.342;-1.290;2023-03-19T00:59:55;99687.91;;;11.49;100.00
28027;BME280;15344;52.342;-1.290;2023-03-19T01:02:21;99688.19;;;10.43;100.00
28027;BME280;15344;52.342;-1.290;2023-03-19T01:04:47;99696.52;;;10.83;100.00
28027;BME280;15344;52.342;-1.290;2023-03-19T01:07:12;99696.31;;;11.37;97.74
28027;BME280;15344;52.342;-1.290;2023-03-19T01:09:37;99700.59;;;10.85;99.83
28027;BME280;15344;52.342;-1.290;2023-03-19T01:12:03;99704.17;;;10.96;99.29
28027;BME280;15344;52.342;-1.290;2023-03-19T01:14:28;99707.39;;;10.45;100.00
28027;BME280;15344;52.342;-1.290;2023-03-19T01:16:53;99709.02;;;10.37;100.00
28027;BME280;15344;52.342;-1.290;2023-03-19T01:19:19;99714.83;;;10.37;100.00
28027;BME280;15344;52.342;-1.290;2023-03-19T01:21:44;99710.00;;;10.72;100.00
28027;BME280;15344;52.342;-1.290;2023-03-19T01:24:10;99713.65;;;9.74;100.00
28027;BME280;15344;52.342;-1.290;2023-03-19T01:26:35;99713.91;;;9.64;100.00
28027;BME280;15344;52.342;-1.290;2023-03-19T01:29:01;99724.23;;;9.90;100.00
28027;BME280;15344;52.342;-1.290;2023-03-19T01:31:26;99725.28;;;9.75;100.00
28027;BME280;15344;52.342;-1.290;2023-03-19T01:33:51;99725.05;;;10.28;100.00
28027;BME280;15344;52.342;-1.290;2023-03-19T01:36:17;99735.72;;;9.06;100.00
28027;BME280;15344;52.342;-1.290;2023-03-19T01:38:42;99741.86;;;9.79;100.00
28027;BME280;15344;52.342;-1.290;2023-03-19T01:41:08;99738.24;;;10.12;100.00
28027;BME280;15344;52.342;-1.290;2023-03-19T01:43:33;99742.83;;;8.76;100.00
28027;BME280;15344;52.342;-1.290;2023-03-19T01:46:00;99742.08;;;10.31;100.00
28027;BME280;15344;52.342;-1.290;2023-03-19T01:48:30;99749.96;;;9.98;100.00
28027;BME280;15344;52.342;-1.290;2023-03-19T01:50:50;99756.91;;;9.91;100.00
28027;BME280;15344;52.342;-1.290;2023-03-19T01:53:17;99757.63;;;9.83;100.00
28027;BME280;15344;52.342;-1.290;2023-03-19T01:55:41;99756.99;;;10.31;100.00
28027;BME280;15344;52.342;-1.290;2023-03-19T01:58:06;99756.86;;;10.46;100.00
28027;BME280;15344;52.342;-1.290;2023-03-19T02:00:34;99758.25;;;8.43;100.00
28027;BME280;15344;52.342;-1.290;2023-03-19T02:02:59;99760.57;;;10.04;100.00
28027;BME280;15344;52.342;-1.290;2023-03-19T02:05:22;99752.20;;;8.70;100.00
28027;BME280;15344;52.342;-1.290;2023-03-19T02:07:47;99755.28;;;8.93;100.00
28027;BME280;15344;52.342;-1.290;2023-03-19T02:10:14;99755.98;;;9.26;100.00
28027;BME280;15344;52.342;-1.290;2023-03-19T02:12:38;99759.83;;;9.32;100.00
28027;BME280;15344;52.342;-1.290;2023-03-19T02:15:04;99762.37;;;9.78;100.00
28027;BME280;15344;52.342;-1.290;2023-03-19T02:17:29;99763.37;;;9.76;100.00
28027;BME280;15344;52.342;-1.290;2023-03-19T02:19:58;99769.79;;;8.66;100.00
28027;BME280;15344;52.342;-1.290;2023-03-19T02:22:22;99766.36;;;9.54;100.00
28027;BME280;15344;52.342;-1.290;2023-03-19T02:24:52;99756.77;;;9.03;100.00
28027;BME280;15344;52.342;-1.290;2023-03-19T02:27:10;99752.11;;;8.62;100.00
28027;BME280;15344;52.342;-1.290;2023-03-19T02:29:37;99747.14;;;9.07;100.00
28027;BME280;15344;52.342;-1.290;2023-03-19T02:32:01;99749.05;;;9.86;98.02
28027;BME280;15344;52.342;-1.290;2023-03-19T02:34:32;99745.52;;;9.41;100.00
28027;BME280;15344;52.342;-1.290;2023-03-19T02:36:56;99742.35;;;9.78;98.33
28027;BME280;15344;52.342;-1.290;2023-03-19T02:39:22;99749.77;;;10.13;98.01
28027;BME280;15344;52.342;-1.290;2023-03-19T02:41:43;99752.42;;;9.80;97.62
28027;BME280;15344;52.342;-1.290;2023-03-19T02:44:09;99753.88;;;9.23;98.29
28027;BME280;15344;52.342;-1.290;2023-03-19T02:46:34;99757.94;;;9.39;100.00
28027;BME280;15344;52.342;-1.290;2023-03-19T02:48:59;99759.56;;;9.87;95.92
28027;BME280;15344;52.342;-1.290;2023-03-19T02:51:25;99764.17;;;8.32;100.00
28027;BME280;15344;52.342;-1.290;2023-03-19T02:53:50;99767.40;;;9.06;100.00
28027;BME280;15344;52.342;-1.290;2023-03-19T02:56:16;99773.46;;;10.19;97.95
28027;BME280;15344;52.342;-1.290;2023-03-19T02:58:41;99776.69;;;10.41;94.07
28027;BME280;15344;52.342;-1.290;2023-03-19T03:01:07;99782.70;;;10.20;95.19
28027;BME280;15344;52.342;-1.290;2023-03-19T03:03:32;99785.91;;;10.28;92.66
28027;BME280;15344;52.342;-1.290;2023-03-19T03:05:58;99789.29;;;10.69;91.72
28027;BME280;15344;52.342;-1.290;2023-03-19T03:08:23;99789.20;;;10.68;89.79
28027;BME280;15344;52.342;-1.290;2023-03-19T03:10:49;99789.53;;;9.80;92.23
28027;BME280;15344;52.342;-1.290;2023-03-19T03:13:14;99794.70;;;10.67;89.67
28027;BME280;15344;52.342;-1.290;2023-03-19T03:15:39;99795.30;;;11.37;87.58
28027;BME280;15344;52.342;-1.290;2023-03-19T03:18:05;99801.10;;;10.56;88.75
28027;BME280;15344;52.342;-1.290;2023-03-19T03:20:30;99807.44;;;11.01;87.25
28027;BME280;15344;52.342;-1.290;2023-03-19T03:22:56;99812.77;;;10.78;86.70
28027;BME280;15344;52.342;-1.290;2023-03-19T03:25:21;99813.30;;;10.93;89.65
28027;BME280;15344;52.342;-1.290;2023-03-19T03:27:47;99816.22;;;10.87;89.18
28027;BME280;15344;52.342;-1.290;2023-03-19T03:30:13;99816.77;;;10.32;92.32
28027;BME280;15344;52.342;-1.290;2023-03-19T03:32:38;99819.70;;;10.67;91.19
28027;BME280;15344;52.342;-1.290;2023-03-19T03:35:03;99820.60;;;10.02;93.58
28027;BME280;15344;52.342;-1.290;2023-03-19T03:37:28;99822.62;;;11.10;90.60
28027;BME280;15344;52.342;-1.290;2023-03-19T03:39:54;99831.78;;;10.13;91.74
28027;BME280;15344;52.342;-1.290;2023-03-19T03:42:19;99836.00;;;10.86;90.41
28027;BME280;15344;52.342;-1.290;2023-03-19T03:44:44;99831.25;;;10.08;92.31
28027;BME280;15344;52.342;-1.290;2023-03-19T03:47:11;99837.14;;;10.32;90.26
28027;BME280;15344;52.342;-1.290;2023-03-19T03:49:35;99838.56;;;10.20;91.30
28027;BME280;15344;52.342;-1.290;2023-03-19T03:52:01;99840.31;;;10.38;91.52
28027;BME280;15344;52.342;-1.290;2023-03-19T03:54:26;99839.18;;;10.49;91.04
28027;BME280;15344;52.342;-1.290;2023-03-19T03:56:51;99843.28;;;9.99;92.49
28027;BME280;15344;52.342;-1.290;2023-03-19T03:59:17;99848.03;;;9.96;92.82
28027;BME280;15344;52.342;-1.290;2023-03-19T04:01:42;99851.37;;;9.72;92.46
28027;BME280;15344;52.342;-1.290;2023-03-19T04:04:08;99860.25;;;8.80;97.08
28027;BME280;15344;52.342;-1.290;2023-03-19T04:06:33;99863.87;;;8.51;95.87
28027;BME280;15344;52.342;-1.290;2023-03-19T04:08:59;99863.24;;;8.49;96.79
28027;BME280;15344;52.342;-1.290;2023-03-19T04:11:24;99861.27;;;9.67;93.42
28027;BME280;15344;52.342;-1.290;2023-03-19T04:13:49;99864.68;;;8.85;96.18
28027;BME280;15344;52.342;-1.290;2023-03-19T04:16:15;99864.58;;;8.75;97.81
28027;BME280;15344;52.342;-1.290;2023-03-19T04:18:40;99863.74;;;9.58;93.71
28027;BME280;15344;52.342;-1.290;2023-03-19T04:21:06;99868.01;;;9.66;93.16
28027;BME280;15344;52.342;-1.290;2023-03-19T04:23:32;99873.04;;;8.90;96.56
28027;BME280;15344;52.342;-1.290;2023-03-19T04:25:57;99874.71;;;8.74;98.57
28027;BME280;15344;52.342;-1.290;2023-03-19T04:28:22;99883.55;;;8.32;99.97
28027;BME280;15344;52.342;-1.290;2023-03-19T04:30:48;99885.99;;;8.73;96.76
28027;BME280;15344;52.342;-1.290;2023-03-19T04:33:14;99887.87;;;9.42;94.38
28027;BME280;15344;52.342;-1.290;2023-03-19T04:35:39;99885.11;;;8.85;97.15
28027;BME280;15344;52.342;-1.290;2023-03-19T04:38:05;99886.36;;;8.19;100.00
28027;BME280;15344;52.342;-1.290;2023-03-19T04:40:31;99885.41;;;8.96;96.91
28027;BME280;15344;52.342;-1.290;2023-03-19T04:42:56;99883.23;;;8.85;96.33
28027;BME280;15344;52.342;-1.290;2023-03-19T04:45:21;99887.07;;;8.60;96.61
28027;BME280;15344;52.342;-1.290;2023-03-19T04:47:47;99884.65;;;9.57;92.73
28027;BME280;15344;52.342;-1.290;2023-03-19T04:50:12;99887.49;;;9.71;92.45
28027;BME280;15344;52.342;-1.290;2023-03-19T04:52:38;99893.24;;;9.07;92.37
28027;BME280;15344;52.342;-1.290;2023-03-19T04:55:04;99892.67;;;9.74;90.35
28027;BME280;15344;52.342;-1.290;2023-03-19T04:57:29;99895.27;;;9.88;90.44
28027;BME280;15344;52.342;-1.290;2023-03-19T04:59:54;99897.64;;;9.93;90.36
28027;BME280;15344;52.342;-1.290;2023-03-19T05:02:20;99901.85;;;9.75;89.97
28027;BME280;15344;52.342;-1.290;2023-03-19T05:04:45;99899.34;;;8.41;93.97
28027;BME280;15344;52.342;-1.290;2023-03-19T05:07:11;99899.43;;;9.19;93.06
28027;BME280;15344;52.342;-1.290;2023-03-19T05:09:36;99901.09;;;9.98;90.57
28027;BME280;15344;52.342;-1.290;2023-03-19T05:12:02;99899.77;;;9.68;90.78
28027;BME280;15344;52.342;-1.290;2023-03-19T05:14:27;99897.30;;;9.59;89.62
28027;BME280;15344;52.342;-1.290;2023-03-19T05:16:53;99903.37;;;9.74;89.79
28027;BME280;15344;52.342;-1.290;2023-03-19T05:19:19;99904.22;;;9.38;90.27
28027;BME280;15344;52.342;-1.290;2023-03-19T05:21:44;99901.46;;;10.11;86.02
28027;BME280;15344;52.342;-1.290;2023-03-19T05:24:09;99909.86;;;9.79;89.23
28027;BME280;15344;52.342;-1.290;2023-03-19T05:26:35;99917.68;;;10.27;85.85
28027;BME280;15344;52.342;-1.290;2023-03-19T05:29:00;99923.99;;;9.49;87.27
28027;BME280;15344;52.342;-1.290;2023-03-19T05:31:26;99932.37;;;10.09;86.05
28027;BME280;15344;52.342;-1.290;2023-03-19T05:33:51;99934.34;;;9.62;86.94
28027;BME280;15344;52.342;-1.290;2023-03-19T05:36:16;99939.66;;;10.53;84.36
28027;BME280;15344;52.342;-1.290;2023-03-19T05:38:41;99938.67;;;9.97;83.80
28027;BME280;15344;52.342;-1.290;2023-03-19T05:41:07;99941.25;;;10.46;84.60
28027;BME280;15344;52.342;-1.290;2023-03-19T05:43:33;99941.53;;;9.70;85.29
28027;BME280;15344;52.342;-1.290;2023-03-19T05:45:58;99944.45;;;10.40;83.20
28027;BME280;15344;52.342;-1.290;2023-03-19T05:48:24;99950.43;;;10.35;83.96
28027;BME280;15344;52.342;-1.290;2023-03-19T05:50:48;99957.57;;;10.35;82.49
28027;BME280;15344;52.342;-1.290;2023-03-19T05:53:14;99959.97;;;9.95;83.61
28027;BME280;15344;52.342;-1.290;2023-03-19T05:55:40;99962.73;;;10.66;80.48
28027;BME280;15344;52.342;-1.290;2023-03-19T05:58:05;99964.05;;;10.73;80.81
28027;BME280;15344;52.342;-1.290;2023-03-19T06:00:30;99966.83;;;10.59;82.14
28027;BME280;15344;52.342;-1.290;2023-03-19T06:02:57;99971.56;;;10.38;82.02
28027;BME280;15344;52.342;-1.290;2023-03-19T06:05:21;99972.03;;;10.92;79.21
28027;BME280;15344;52.342;-1.290;2023-03-19T06:07:47;99972.36;;;10.63;79.52
28027;BME280;15344;52.342;-1.290;2023-03-19T06:10:13;99976.09;;;10.56;80.31
28027;BME280;15344;52.342;-1.290;2023-03-19T06:12:38;99979.27;;;10.53;79.45
28027;BME280;15344;52.342;-1.290;2023-03-19T06:15:04;99987.58;;;9.93;80.84
28027;BME280;15344;52.342;-1.290;2023-03-19T06:17:28;99990.51;;;10.67;81.39
28027;BME280;15344;52.342;-1.290;2023-03-19T06:19:54;99993.80;;;10.16;82.28
28027;BME280;15344;52.342;-1.290;2023-03-19T06:22:19;99994.17;;;10.60;81.90
28027;BME280;15344;52.342;-1.290;2023-03-19T06:24:45;100000.73;;;10.61;81.17
28027;BME280;15344;52.342;-1.290;2023-03-19T06:27:11;100002.08;;;11.00;80.50
28027;BME280;15344;52.342;-1.290;2023-03-19T06:29:36;99998.61;;;10.97;80.63
28027;BME280;15344;52.342;-1.290;2023-03-19T06:32:01;100005.31;;;10.89;82.29
28027;BME280;15344;52.342;-1.290;2023-03-19T06:34:27;100004.00;;;11.07;81.23
28027;BME280;15344;52.342;-1.290;2023-03-19T06:36:52;100004.78;;;11.02;80.81
28027;BME280;15344;52.342;-1.290;2023-03-19T06:39:18;100009.23;;;11.25;80.66
28027;BME280;15344;52.342;-1.290;2023-03-19T06:41:43;100015.80;;;11.04;78.72
28027;BME280;15344;52.342;-1.290;2023-03-19T06:44:09;100015.42;;;10.66;80.29
28027;BME280;15344;52.342;-1.290;2023-03-19T06:46:34;100020.71;;;10.48;80.01
28027;BME280;15344;52.342;-1.290;2023-03-19T06:48:59;100019.78;;;10.96;79.20
28027;BME280;15344;52.342;-1.290;2023-03-19T06:51:25;100022.02;;;10.63;81.66
28027;BME280;15344;52.342;-1.290;2023-03-19T06:53:50;100029.40;;;11.02;81.18
28027;BME280;15344;52.342;-1.290;2023-03-19T06:56:16;100033.04;;;10.64;80.69
28027;BME280;15344;52.342;-1.290;2023-03-19T06:58:41;100038.47;;;10.53;83.12
28027;BME280;15344;52.342;-1.290;2023-03-19T07:01:07;100039.91;;;10.79;81.46
28027;BME280;15344;52.342;-1.290;2023-03-19T07:03:32;100044.35;;;10.39;82.63
28027;BME280;15344;52.342;-1.290;2023-03-19T07:05:59;100042.78;;;10.71;82.25
28027;BME280;15344;52.342;-1.290;2023-03-19T07:08:23;100042.64;;;10.71;80.97
28027;BME280;15344;52.342;-1.290;2023-03-19T07:10:48;100047.06;;;10.86;82.22
28027;BME280;15344;52.342;-1.290;2023-03-19T07:13:14;100046.18;;;10.86;82.16
28027;BME280;15344;52.342;-1.290;2023-03-19T07:15:39;100053.22;;;10.98;81.17
28027;BME280;15344;52.342;-1.290;2023-03-19T07:18:05;100054.30;;;10.58;83.25
28027;BME280;15344;52.342;-1.290;2023-03-19T07:20:30;100057.46;;;10.78;81.94
28027;BME280;15344;52.342;-1.290;2023-03-19T07:22:56;100053.55;;;10.79;82.06
28027;BME280;15344;52.342;-1.290;2023-03-19T07:25:21;100056.11;;;10.46;83.22
28027;BME280;15344;52.342;-1.290;2023-03-19T07:27:47;100059.39;;;9.50;86.87
28027;BME280;15344;52.342;-1.290;2023-03-19T07:30:13;100064.83;;;10.27;87.10
28027;BME280;15344;52.342;-1.290;2023-03-19T07:32:38;100071.10;;;9.62;87.05
28027;BME280;15344;52.342;-1.290;2023-03-19T07:35:04;100071.67;;;10.02;86.62
28027;BME280;15344;52.342;-1.290;2023-03-19T07:37:29;100073.24;;;10.34;85.59
28027;BME280;15344;52.342;-1.290;2023-03-19T07:39:54;100077.06;;;10.64;85.22
28027;BME280;15344;52.342;-1.290;2023-03-19T07:42:19;100075.01;;;10.88;84.32
28027;BME280;15344;52.342;-1.290;2023-03-19T07:44:45;100073.04;;;10.17;85.39
28027;BME280;15344;52.342;-1.290;2023-03-19T07:47:10;100074.72;;;10.57;85.79
28027;BME280;15344;52.342;-1.290;2023-03-19T07:49:36;100081.25;;;10.87;83.05
28027;BME280;15344;52.342;-1.290;2023-03-19T07:52:01;100087.87;;;11.54;82.61
28027;BME280;15344;52.342;-1.290;2023-03-19T07:54:26;100093.82;;;11.06;82.20
28027;BME280;15344;52.342;-1.290;2023-03-19T07:56:52;100094.79;;;11.92;81.18
28027;BME280;15344;52.342;-1.290;2023-03-19T07:59:17;100096.03;;;10.54;82.77
28027;BME280;15344;52.342;-1.290;2023-03-19T08:01:43;100102.63;;;11.15;81.60
28027;BME280;15344;52.342;-1.290;2023-03-19T08:04:08;100104.74;;;11.28;82.16
28027;BME280;15344;52.342;-1.290;2023-03-19T08:06:33;100109.42;;;11.23;82.45
28027;BME280;15344;52.342;-1.290;2023-03-19T08:08:59;100105.45;;;11.50;80.43
28027;BME280;15344;52.342;-1.290;2023-03-19T08:11:24;100111.12;;;11.90;80.04
28027;BME280;15344;52.342;-1.290;2023-03-19T08:13:50;100116.12;;;10.66;83.67
28027;BME280;15344;52.342;-1.290;2023-03-19T08:16:15;100124.23;;;11.27;81.81
28027;BME280;15344;52.342;-1.290;2023-03-19T08:18:40;100130.94;;;11.37;82.47
28027;BME280;15344;52.342;-1.290;2023-03-19T08:21:06;100127.62;;;11.88;80.79
28027;BME280;15344;52.342;-1.290;2023-03-19T08:23:31;100128.12;;;12.33;80.52
28027;BME280;15344;52.342;-1.290;2023-03-19T08:25:57;100128.77;;;12.14;80.96
28027;BME280;15344;52.342;-1.290;2023-03-19T08:28:22;100127.94;;;10.78;84.68
28027;BME280;15344;52.342;-1.290;2023-03-19T08:30:48;100129.43;;;11.12;84.39
28027;BME280;15344;52.342;-1.290;2023-03-19T08:33:13;100134.74;;;12.23;80.18
28027;BME280;15344;52.342;-1.290;2023-03-19T08:35:38;100142.82;;;11.77;81.57
28027;BME280;15344;52.342;-1.290;2023-03-19T08:38:04;100143.62;;;11.79;81.25
28027;BME280;15344;52.342;-1.290;2023-03-19T08:40:29;100143.17;;;11.81;82.20
28027;BME280;15344;52.342;-1.290;2023-03-19T08:42:55;100142.21;;;11.33;83.17
28027;BME280;15344;52.342;-1.290;2023-03-19T08:45:20;100145.12;;;11.71;81.04
28027;BME280;15344;52.342;-1.290;2023-03-19T08:47:45;100150.45;;;11.67;81.55
28027;BME280;15344;52.342;-1.290;2023-03-19T08:50:11;100160.84;;;10.21;85.61
28027;BME280;15344;52.342;-1.290;2023-03-19T08:52:36;100162.23;;;11.34;84.43
28027;BME280;15344;52.342;-1.290;2023-03-19T08:55:01;100157.48;;;12.42;82.44
28027;BME280;15344;52.342;-1.290;2023-03-19T08:57:26;100162.77;;;12.07;82.07
28027;BME280;15344;52.342;-1.290;2023-03-19T08:59:52;100170.12;;;12.28;82.75
28027;BME280;15344;52.342;-1.290;2023-03-19T09:02:17;100170.42;;;11.90;84.40
28027;BME280;15344;52.342;-1.290;2023-03-19T09:04:43;100171.83;;;11.56;84.61
28027;BME280;15344;52.342;-1.290;2023-03-19T09:07:09;100177.50;;;11.22;85.81
28027;BME280;15344;52.342;-1.290;2023-03-19T09:09:33;100176.57;;;11.38;87.70
28027;BME280;15344;52.342;-1.290;2023-03-19T09:11:59;100175.31;;;11.04;90.97
28027;BME280;15344;52.342;-1.290;2023-03-19T09:14:24;100175.98;;;11.04;91.36
28027;BME280;15344;52.342;-1.290;2023-03-19T09:16:50;100179.97;;;11.30;91.21
28027;BME280;15344;52.342;-1.290;2023-03-19T09:19:15;100185.79;;;11.18;91.77
28027;BME280;15344;52.342;-1.290;2023-03-19T09:21:41;100186.90;;;11.08;92.98
28027;BME280;15344;52.342;-1.290;2023-03-19T09:24:06;100183.90;;;11.86;89.11
28027;BME280;15344;52.342;-1.290;2023-03-19T09:26:31;100186.73;;;12.82;87.08
28027;BME280;15344;52.342;-1.290;2023-03-19T09:28:57;100190.37;;;10.91;91.86
28027;BME280;15344;52.342;-1.290;2023-03-19T09:31:22;100195.98;;;11.21;91.78
28027;BME280;15344;52.342;-1.290;2023-03-19T09:33:47;100198.29;;;11.78;90.60
28027;BME280;15344;52.342;-1.290;2023-03-19T09:36:13;100198.73;;;12.42;85.93
28027;BME280;15344;52.342;-1.290;2023-03-19T09:38:39;100208.72;;;11.42;90.19
28027;BME280;15344;52.342;-1.290;2023-03-19T09:41:09;100215.60;;;11.72;89.22
28027;BME280;15344;52.342;-1.290;2023-03-19T09:43:43;100221.17;;;11.53;90.19
28027;BME280;15344;52.342;-1.290;2023-03-19T09:45:55;100223.02;;;11.54;91.56
28027;BME280;15344;52.342;-1.290;2023-03-19T09:48:29;100225.98;;;11.56;89.91
28027;BME280;15344;52.342;-1.290;2023-03-19T09:50:46;100233.13;;;11.10;92.28
28027;BME280;15344;52.342;-1.290;2023-03-19T09:53:17;100232.00;;;11.50;89.60
28027;BME280;15344;52.342;-1.290;2023-03-19T09:55:40;100229.78;;;11.80;87.58
28027;BME280;15344;52.342;-1.290;2023-03-19T09:58:01;100228.00;;;11.23;90.28
28027;BME280;15344;52.342;-1.290;2023-03-19T10:00:29;100231.21;;;11.18;90.61
28027;BME280;15344;52.342;-1.290;2023-03-19T10:02:55;100231.51;;;12.54;85.43
28027;BME280;15344;52.342;-1.290;2023-03-19T10:05:24;100232.46;;;12.31;83.85
28027;BME280;15344;52.342;-1.290;2023-03-19T10:07:54;100226.87;;;11.97;82.59
28027;BME280;15344;52.342;-1.290;2023-03-19T10:10:17;100232.77;;;12.78;81.64
28027;BME280;15344;52.342;-1.290;2023-03-19T10:12:43;100237.22;;;13.50;79.84
28027;BME280;15344;52.342;-1.290;2023-03-19T10:15:11;100239.85;;;13.35;80.26
28027;BME280;15344;52.342;-1.290;2023-03-19T10:17:28;100232.01;;;14.55;76.61
28027;BME280;15344;52.342;-1.290;2023-03-19T10:19:52;100239.74;;;14.26;75.54
28027;BME280;15344;52.342;-1.290;2023-03-19T10:22:17;100234.05;;;14.36;70.91
28027;BME280;15344;52.342;-1.290;2023-03-19T10:24:40;100235.73;;;14.74;74.78
28027;BME280;15344;52.342;-1.290;2023-03-19T10:27:10;100241.26;;;15.60;78.69
28027;BME280;15344;52.342;-1.290;2023-03-19T10:29:30;100236.15;;;16.22;69.67
28027;BME280;15344;52.342;-1.290;2023-03-19T10:32:01;100235.18;;;15.85;68.93
28027;BME280;15344;52.342;-1.290;2023-03-19T10:34:28;100233.22;;;15.64;65.52
28027;BME280;15344;52.342;-1.290;2023-03-19T10:36:45;100230.35;;;15.69;65.49
28027;BME280;15344;52.342;-1.290;2023-03-19T10:39:11;100224.15;;;15.74;67.27
28027;BME280;15344;52.342;-1.290;2023-03-19T10:41:42;100223.64;;;15.72;66.20
28027;BME280;15344;52.342;-1.290;2023-03-19T10:44:04;100225.48;;;15.73;66.55
28027;BME280;15344;52.342;-1.290;2023-03-19T10:46:26;100228.58;;;14.34;69.79
28027;BME280;15344;52.342;-1.290;2023-03-19T10:48:51;100227.60;;;15.78;67.68
28027;BME280;15344;52.342;-1.290;2023-03-19T10:51:20;100229.97;;;16.78;70.07
28027;BME280;15344;52.342;-1.290;2023-03-19T10:53:42;100238.22;;;15.92;64.12
28027;BME280;15344;52.342;-1.290;2023-03-19T10:56:16;100243.15;;;16.82;63.17
28027;BME280;15344;52.342;-1.290;2023-03-19T10:58:34;100236.40;;;15.62;62.05
28027;BME280;15344;52.342;-1.290;2023-03-19T11:01:02;100233.90;;;16.19;68.27
28027;BME280;15344;52.342;-1.290;2023-03-19T11:03:30;100235.31;;;15.65;66.25
28027;BME280;15344;52.342;-1.290;2023-03-19T11:05:48;100240.30;;;14.74;66.74
28027;BME280;15344;52.342;-1.290;2023-03-19T11:08:18;100249.87;;;15.15;66.45
28027;BME280;15344;52.342;-1.290;2023-03-19T11:10:44;100255.75;;;15.86;61.78
28027;BME280;15344;52.342;-1.290;2023-03-19T11:13:05;100254.12;;;14.43;67.29
28027;BME280;15344;52.342;-1.290;2023-03-19T11:15:33;100257.82;;;15.94;64.50
28027;BME280;15344;52.342;-1.290;2023-03-19T11:17:57;100256.72;;;15.05;67.09
28027;BME280;15344;52.342;-1.290;2023-03-19T11:20:23;100259.11;;;15.37;67.12
28027;BME280;15344;52.342;-1.290;2023-03-19T11:22:45;100266.04;;;14.91;66.15
28027;BME280;15344;52.342;-1.290;2023-03-19T11:25:15;100267.75;;;15.33;67.71
28027;BME280;15344;52.342;-1.290;2023-03-19T11:27:35;100263.11;;;16.46;63.17
28027;BME280;15344;52.342;-1.290;2023-03-19T11:30:02;100259.69;;;15.33;62.10
28027;BME280;15344;52.342;-1.290;2023-03-19T11:32:38;100260.34;;;15.10;62.89
28027;BME280;15344;52.342;-1.290;2023-03-19T11:34:55;100268.24;;;13.85;66.01
28027;BME280;15344;52.342;-1.290;2023-03-19T11:37:22;100277.01;;;12.92;70.38
28027;BME280;15344;52.342;-1.290;2023-03-19T11:39:49;100273.52;;;14.21;68.95
28027;BME280;15344;52.342;-1.290;2023-03-19T11:44:40;100282.16;;;12.61;75.04
28027;BME280;15344;52.342;-1.290;2023-03-19T11:47:03;100278.31;;;12.75;76.93
28027;BME280;15344;52.342;-1.290;2023-03-19T11:51:50;100285.28;;;13.52;78.04
28027;BME280;15344;52.342;-1.290;2023-03-19T11:54:21;100286.16;;;13.71;76.35
28027;BME280;15344;52.342;-1.290;2023-03-19T11:56:42;100282.09;;;13.64;75.30
28027;BME280;15344;52.342;-1.290;2023-03-19T11:59:16;100274.59;;;12.82;79.08
28027;BME280;15344;52.342;-1.290;2023-03-19T12:01:43;100270.73;;;13.25;80.53
28027;BME280;15344;52.342;-1.290;2023-03-19T12:04:10;100272.58;;;13.36;76.78
28027;BME280;15344;52.342;-1.290;2023-03-19T12:06:31;100272.45;;;13.16;78.46
28027;BME280;15344;52.342;-1.290;2023-03-19T12:08:49;100273.95;;;13.07;75.82
28027;BME280;15344;52.342;-1.290;2023-03-19T12:11:17;100271.84;;;13.26;76.75
28027;BME280;15344;52.342;-1.290;2023-03-19T12:13:43;100269.99;;;13.99;77.00
28027;BME280;15344;52.342;-1.290;2023-03-19T12:16:11;100265.74;;;13.88;75.55
28027;BME280;15344;52.342;-1.290;2023-03-19T12:18:40;100267.51;;;14.04;74.38
28027;BME280;15344;52.342;-1.290;2023-03-19T12:20:57;100257.55;;;13.93;76.11
28027;BME280;15344;52.342;-1.290;2023-03-19T12:23:28;100256.72;;;14.16;77.19
28027;BME280;15344;52.342;-1.290;2023-03-19T12:25:53;100249.91;;;14.25;72.41
28027;BME280;15344;52.342;-1.290;2023-03-19T12:28:15;100252.19;;;14.86;71.47
28027;BME280;15344;52.342;-1.290;2023-03-19T12:30:37;100255.54;;;14.27;68.96
28027;BME280;15344;52.342;-1.290;2023-03-19T12:33:09;100263.62;;;13.29;69.44
28027;BME280;15344;52.342;-1.290;2023-03-19T12:35:30;100263.84;;;14.02;68.73
28027;BME280;15344;52.342;-1.290;2023-03-19T12:37:54;100262.96;;;14.20;67.23
28027;BME280;15344;52.342;-1.290;2023-03-19T12:40:21;100260.28;;;14.59;67.64